createdAt,value
2022-10-05T00:01:53.162Z,4.85
2022-10-05T00:04:10.213Z,3.88
2022-10-05T00:06:12.866Z,4.70
2022-10-05T00:08:22.304Z,4.15
2022-10-05T00:10:24.574Z,4.38
2022-10-05T00:12:28.424Z,4.53
2022-10-05T00:14:33.089Z,3.95
2022-10-05T00:16:35.246Z,4.28
2022-10-05T00:18:37.338Z,4.78
2022-10-05T00:20:41.686Z,4.22
2022-10-05T00:22:43.548Z,4.00
2022-10-05T00:24:48.467Z,4.05
2022-10-05T00:26:56.903Z,4.15
2022-10-05T00:29:02.227Z,4.00
2022-10-05T00:31:15.315Z,4.50
2022-10-05T00:33:17.193Z,4.60
2022-10-05T00:35:20.091Z,4.30
2022-10-05T00:37:21.911Z,4.70
2022-10-05T00:39:23.722Z,4.53
2022-10-05T00:41:50.898Z,4.18
2022-10-05T00:43:58.743Z,3.83
2022-10-05T00:46:11.077Z,3.97
2022-10-05T00:48:50.679Z,4.63
2022-10-05T00:50:58.311Z,4.28
2022-10-05T00:53:17.169Z,4.10
2022-10-05T00:55:43.042Z,4.30
2022-10-05T00:58:19.377Z,4.40
2022-10-05T01:00:25.004Z,4.30
2022-10-05T01:03:06.222Z,4.00
2022-10-05T01:05:19.523Z,4.68
2022-10-05T01:07:30.577Z,4.15
2022-10-05T01:09:38.311Z,4.05
2022-10-05T01:12:00.408Z,4.70
2022-10-05T01:14:28.321Z,4.10
2022-10-05T01:16:42.899Z,4.50
2022-10-05T01:18:59.625Z,4.45
2022-10-05T01:21:24.490Z,4.25
2022-10-05T01:23:29.627Z,4.57
2022-10-05T01:25:53.272Z,4.32
2022-10-05T01:27:59.390Z,3.90
2022-10-05T01:30:17.059Z,4.25
2022-10-05T01:32:46.892Z,4.00
2022-10-05T01:35:03.361Z,3.85
2022-10-05T01:37:30.417Z,3.72
2022-10-05T01:39:32.213Z,3.90
2022-10-05T01:41:45.922Z,4.15
2022-10-05T01:44:02.849Z,4.20
2022-10-05T01:46:21.503Z,4.03
2022-10-05T01:48:49.816Z,3.80
2022-10-05T01:53:11.851Z,4.63
2022-10-05T01:55:43.332Z,4.70
2022-10-05T01:58:12.155Z,4.55
2022-10-05T02:00:19.013Z,4.53
2022-10-05T02:02:24.458Z,4.22
2022-10-05T02:05:01.580Z,4.50
2022-10-05T02:07:43.803Z,4.72
2022-10-05T02:09:55.443Z,4.75
2022-10-05T02:12:07.082Z,3.78
2022-10-05T02:14:13.242Z,4.63
2022-10-05T02:16:44.006Z,4.30
2022-10-05T02:19:02.069Z,5.22
2022-10-05T02:21:05.444Z,4.47
2022-10-05T02:23:16.442Z,5.00
2022-10-05T02:25:31.316Z,4.53
2022-10-05T02:27:58.239Z,4.25
2022-10-05T02:30:05.133Z,5.50
2022-10-05T02:32:19.973Z,5.43
2022-10-05T02:34:25.047Z,5.90
2022-10-05T02:36:35.235Z,5.70
2022-10-05T02:38:50.070Z,5.70
2022-10-05T02:41:03.662Z,5.82
2022-10-05T02:43:46.428Z,5.20
2022-10-05T02:46:12.000Z,4.97
2022-10-05T02:48:31.309Z,4.55
2022-10-05T02:50:58.257Z,4.07
2022-10-05T02:53:24.209Z,5.20
2022-10-05T02:55:57.163Z,4.82
2022-10-05T02:58:16.217Z,5.10
2022-10-05T03:00:24.089Z,5.35
2022-10-05T03:02:48.610Z,4.68
2022-10-05T03:05:12.135Z,4.90
2022-10-05T03:07:26.509Z,5.03
2022-10-05T03:09:36.329Z,5.60
2022-10-05T03:11:59.131Z,5.03
2022-10-05T03:14:10.285Z,6.05
2022-10-05T03:16:35.005Z,5.47
2022-10-05T03:18:46.111Z,7.45
2022-10-05T03:20:48.827Z,5.22
2022-10-05T03:22:54.633Z,6.97
2022-10-05T03:25:21.315Z,7.38
2022-10-05T03:27:55.086Z,7.18
2022-10-05T03:30:08.447Z,6.88
2022-10-05T03:32:25.497Z,8.10
2022-10-05T03:34:51.005Z,6.80
2022-10-05T03:37:15.306Z,7.32
2022-10-05T03:39:34.088Z,7.32
2022-10-05T03:41:48.426Z,6.25
2022-10-05T03:44:27.917Z,6.72
2022-10-05T03:46:54.459Z,6.82
2022-10-05T03:49:27.496Z,6.50
2022-10-05T03:51:37.274Z,6.35
2022-10-05T03:53:52.563Z,7.22
2022-10-05T03:56:03.316Z,6.68
2022-10-05T03:58:42.197Z,7.25
2022-10-05T04:00:48.224Z,7.00
2022-10-05T04:03:10.280Z,5.32
2022-10-05T04:05:24.817Z,6.38
2022-10-05T04:07:46.715Z,6.53
2022-10-05T04:09:53.203Z,5.47
2022-10-05T04:12:27.162Z,5.15
2022-10-05T04:14:38.608Z,6.13
2022-10-05T04:16:56.834Z,5.53
2022-10-05T04:19:30.976Z,6.05
2022-10-05T04:21:45.114Z,6.15
2022-10-05T04:24:12.406Z,6.18
2022-10-05T04:26:55.405Z,5.75
2022-10-05T04:29:04.669Z,7.13
2022-10-05T04:31:11.883Z,6.35
2022-10-05T04:33:15.996Z,6.85
2022-10-05T04:35:43.896Z,5.65
2022-10-05T04:38:23.544Z,5.32
2022-10-05T04:40:36.663Z,5.07
2022-10-05T04:42:44.758Z,6.00
2022-10-05T04:45:06.478Z,5.90
2022-10-05T04:47:22.398Z,6.70
2022-10-05T04:49:35.891Z,6.10
2022-10-05T04:51:55.703Z,6.22
2022-10-05T04:54:03.746Z,6.05
2022-10-05T04:56:10.853Z,5.75
2022-10-05T04:58:45.415Z,6.63
2022-10-05T05:00:59.145Z,5.88
2022-10-05T05:03:29.336Z,6.30
2022-10-05T05:06:15.439Z,5.47
2022-10-05T05:08:31.642Z,6.82
2022-10-05T05:10:45.047Z,6.57
2022-10-05T05:12:47.324Z,6.75
2022-10-05T05:15:20.291Z,5.97
2022-10-05T05:17:28.388Z,5.90
2022-10-05T05:21:42.583Z,6.07
2022-10-05T05:24:09.295Z,6.55
2022-10-05T05:26:52.545Z,6.53
2022-10-05T05:29:36.718Z,6.07
2022-10-05T05:31:57.874Z,7.07
2022-10-05T05:34:25.861Z,6.72
2022-10-05T05:36:53.029Z,5.78
2022-10-05T05:39:23.171Z,6.38
2022-10-05T05:41:44.711Z,6.80
2022-10-05T05:44:06.015Z,7.07
2022-10-05T05:46:33.964Z,6.10
2022-10-05T05:48:47.239Z,6.07
2022-10-05T05:51:09.515Z,7.30
2022-10-05T05:53:18.925Z,6.10
2022-10-05T05:55:33.085Z,5.28
2022-10-05T05:57:47.213Z,6.13
2022-10-05T06:00:23.222Z,7.20
2022-10-05T06:02:47.950Z,9.27
2022-10-05T06:04:56.945Z,8.30
2022-10-05T06:07:02.766Z,9.25
2022-10-05T06:09:14.720Z,8.75
2022-10-05T06:11:56.939Z,7.20
2022-10-05T06:14:09.035Z,7.88
2022-10-05T06:16:13.665Z,7.22
2022-10-05T06:18:19.725Z,6.88
2022-10-05T06:20:40.661Z,5.63
2022-10-05T06:22:47.329Z,5.47
2022-10-05T06:25:29.167Z,5.30
2022-10-05T06:27:43.844Z,5.82
2022-10-05T06:30:23.772Z,5.63
2022-10-05T06:32:51.823Z,5.50
2022-10-05T06:35:12.959Z,5.50
2022-10-05T06:37:35.951Z,4.82
2022-10-05T06:40:13.162Z,6.50
2022-10-05T06:43:03.572Z,5.53
2022-10-05T06:45:55.592Z,6.47
2022-10-05T06:48:43.407Z,5.65
2022-10-05T06:52:06.090Z,5.20
2022-10-05T06:54:43.621Z,5.40
2022-10-05T07:00:47.573Z,9.73
2022-10-05T07:03:42.985Z,6.70
2022-10-05T07:06:03.022Z,6.57
2022-10-05T07:08:43.360Z,7.15
2022-10-05T07:11:37.072Z,7.10
2022-10-05T07:14:59.172Z,5.68
2022-10-05T07:21:46.610Z,7.10
2022-10-05T07:24:05.872Z,5.68
2022-10-05T07:26:47.431Z,6.03
2022-10-05T07:29:22.966Z,5.50
2022-10-05T07:49:13.633Z,6.25
2022-10-05T08:19:33.102Z,7.88
2022-10-05T08:36:57.792Z,5.40
2022-10-05T09:03:34.415Z,5.07
2022-10-05T10:18:59.481Z,4.10
2022-10-05T10:21:33.126Z,4.40
2022-10-05T10:24:14.925Z,6.55
2022-10-05T10:26:26.065Z,6.55
2022-10-05T10:28:52.515Z,5.72
2022-10-05T10:31:09.313Z,12.13
2022-10-05T10:33:23.004Z,11.32
2022-10-05T10:35:32.356Z,8.10
2022-10-05T10:37:39.184Z,7.30
2022-10-05T10:40:20.265Z,9.35
2022-10-05T10:43:01.169Z,14.57
2022-10-05T10:45:15.499Z,17.48
2022-10-05T10:47:20.143Z,19.55
2022-10-05T10:49:46.204Z,19.60
2022-10-05T10:52:22.611Z,19.55
2022-10-05T10:55:02.752Z,18.08
2022-10-05T10:57:42.670Z,19.00
2022-10-05T11:00:08.563Z,18.83
2022-10-05T11:02:37.418Z,18.50
2022-10-05T11:05:01.614Z,17.98
2022-10-05T11:07:36.340Z,18.45
2022-10-05T11:10:14.676Z,18.58
2022-10-05T11:12:35.738Z,18.63
2022-10-05T11:14:57.140Z,17.13
2022-10-05T11:17:10.871Z,16.73
2022-10-05T11:19:40.534Z,16.48
2022-10-05T11:22:30.239Z,15.23
2022-10-05T11:24:56.046Z,15.07
2022-10-05T11:27:08.551Z,13.10
2022-10-05T11:29:44.594Z,12.80
2022-10-05T11:32:12.401Z,12.30
2022-10-05T11:34:53.161Z,11.00
2022-10-05T11:37:13.703Z,10.55
2022-10-05T11:39:33.582Z,10.70
2022-10-05T11:42:06.404Z,9.75
2022-10-05T11:44:28.588Z,8.63
2022-10-05T11:46:44.609Z,8.45
2022-10-05T11:49:20.848Z,8.50
2022-10-05T11:51:50.632Z,7.95
2022-10-05T11:54:22.099Z,7.53
2022-10-05T11:56:44.321Z,7.88
2022-10-05T11:59:09.087Z,7.78
2022-10-05T12:01:13.982Z,6.72
2022-10-05T12:03:21.019Z,6.63
2022-10-05T12:05:27.316Z,6.80
2022-10-05T12:08:13.185Z,7.00
2022-10-05T12:10:32.712Z,6.25
2022-10-05T12:12:48.387Z,6.57
2022-10-05T12:15:17.531Z,6.45
2022-10-05T12:17:28.318Z,6.10
2022-10-05T12:19:41.136Z,6.68
2022-10-05T12:21:54.781Z,5.72
2022-10-05T12:24:02.655Z,5.75
2022-10-05T12:26:14.890Z,6.05
2022-10-05T12:28:23.656Z,6.00
2022-10-05T12:30:50.261Z,5.28
2022-10-05T12:33:19.235Z,5.43
2022-10-05T12:35:49.327Z,5.38
2022-10-05T12:38:25.630Z,5.40
2022-10-05T12:40:30.805Z,5.70
2022-10-05T12:42:59.009Z,5.28
2022-10-05T12:45:13.441Z,4.97
2022-10-05T12:47:30.853Z,5.10
2022-10-05T12:49:55.214Z,5.25
2022-10-05T12:52:04.182Z,4.85
2022-10-05T12:54:29.424Z,5.70
2022-10-05T12:56:39.509Z,5.15
2022-10-05T12:59:06.147Z,4.53
2022-10-05T13:01:38.390Z,4.60
2022-10-05T13:03:52.181Z,4.72
2022-10-05T13:05:54.059Z,4.50
2022-10-05T13:08:02.458Z,4.63
2022-10-05T13:10:07.348Z,4.80
2022-10-05T13:12:47.968Z,5.18
2022-10-05T13:14:49.944Z,4.32
2022-10-05T13:16:56.484Z,4.57
2022-10-05T13:19:13.685Z,4.72
2022-10-05T13:21:26.922Z,4.47
2022-10-05T13:23:46.166Z,4.43
2022-10-05T13:25:55.200Z,5.07
2022-10-05T13:28:29.347Z,4.28
2022-10-05T13:30:31.486Z,4.38
2022-10-05T13:32:42.154Z,4.75
2022-10-05T13:35:10.646Z,4.45
2022-10-05T13:37:23.148Z,4.60
2022-10-05T13:39:25.697Z,4.68
2022-10-05T13:41:39.330Z,4.47
2022-10-05T13:44:02.803Z,4.38
2022-10-05T13:46:18.747Z,4.78
2022-10-05T13:48:21.057Z,4.47
2022-10-05T13:50:32.657Z,5.07
2022-10-05T13:52:53.988Z,5.00
2022-10-05T13:55:12.284Z,4.88
2022-10-05T13:59:50.260Z,4.82
2022-10-05T14:01:59.643Z,4.75
2022-10-05T14:04:17.513Z,4.60
2022-10-05T14:06:30.731Z,4.63
2022-10-05T14:08:35.491Z,4.10
2022-10-05T14:10:43.353Z,4.40
2022-10-05T14:12:46.002Z,4.22
2022-10-05T14:14:52.930Z,3.95
2022-10-05T14:16:57.946Z,4.85
2022-10-05T14:19:05.970Z,4.45
2022-10-05T14:21:08.030Z,4.25
2022-10-05T14:23:27.109Z,4.60
2022-10-05T14:25:30.731Z,3.95
2022-10-05T14:27:51.257Z,4.45
2022-10-05T14:30:23.777Z,4.40
2022-10-05T14:32:44.309Z,4.45
2022-10-05T14:34:56.326Z,4.32
2022-10-05T14:37:02.544Z,3.80
2022-10-05T14:39:11.621Z,3.97
2022-10-05T14:41:27.559Z,4.35
2022-10-05T14:43:30.271Z,4.22
2022-10-05T14:45:33.421Z,4.30
2022-10-05T14:47:49.150Z,3.85
2022-10-05T14:50:14.959Z,3.85
2022-10-05T14:52:33.035Z,3.90
2022-10-05T14:54:53.994Z,3.80
2022-10-05T14:57:18.790Z,4.15
2022-10-05T14:59:23.795Z,4.05
2022-10-05T15:01:36.762Z,3.83
2022-10-05T15:03:57.985Z,4.15
2022-10-05T15:06:02.220Z,3.78
2022-10-05T15:08:31.395Z,4.15
2022-10-05T15:10:57.715Z,3.60
2022-10-05T15:13:19.193Z,3.78
2022-10-05T15:15:32.804Z,4.03
2022-10-05T15:17:42.575Z,3.80
2022-10-05T15:20:09.700Z,4.28
2022-10-05T15:22:35.868Z,3.38
2022-10-05T15:24:45.889Z,3.80
2022-10-05T15:26:57.907Z,3.83
2022-10-05T15:29:18.006Z,3.83
2022-10-05T15:31:39.397Z,3.65
2022-10-05T15:33:53.669Z,3.88
2022-10-05T15:36:08.194Z,4.10
2022-10-05T15:38:29.227Z,4.15
2022-10-05T15:40:43.371Z,3.85
2022-10-05T15:42:45.299Z,3.92
2022-10-05T15:45:02.871Z,4.00
2022-10-05T15:47:19.078Z,3.90
2022-10-05T15:49:20.919Z,3.80
2022-10-05T15:51:37.254Z,4.30
2022-10-05T15:54:18.284Z,4.13
2022-10-05T15:56:38.470Z,4.15
2022-10-05T15:59:18.548Z,4.38
2022-10-05T16:01:23.017Z,4.32
2022-10-05T16:03:45.417Z,4.20
2022-10-05T16:06:33.636Z,3.92
2022-10-05T16:08:58.598Z,3.50
2022-10-05T16:11:02.511Z,3.70
2022-10-05T16:13:22.917Z,4.35
2022-10-05T16:15:37.623Z,3.90
2022-10-05T16:17:40.963Z,3.45
2022-10-05T16:19:46.217Z,3.55
2022-10-05T16:22:14.134Z,3.40
2022-10-05T16:24:37.329Z,3.83
2022-10-05T16:27:00.709Z,3.65
2022-10-05T16:29:37.327Z,3.17
2022-10-05T16:31:54.431Z,3.85
2022-10-05T16:34:09.454Z,3.72
2022-10-05T16:36:26.251Z,3.42
2022-10-05T16:38:54.987Z,3.50
2022-10-05T16:41:02.337Z,3.40
2022-10-05T16:43:13.958Z,3.20
2022-10-05T16:46:00.922Z,3.47
2022-10-05T16:48:10.220Z,3.72
2022-10-05T16:50:12.428Z,3.95
2022-10-05T16:52:19.501Z,3.15
2022-10-05T16:54:33.167Z,3.60
2022-10-05T16:56:40.685Z,3.40
2022-10-05T16:58:51.774Z,3.65
2022-10-05T17:01:20.263Z,4.03
2022-10-05T17:03:57.577Z,3.60
2022-10-05T17:06:08.328Z,3.63
2022-10-05T17:08:30.375Z,3.92
2022-10-05T17:10:40.337Z,3.67
2022-10-05T17:13:02.453Z,3.63
2022-10-05T17:15:29.224Z,4.07
2022-10-05T17:17:49.226Z,3.30
2022-10-05T17:20:14.238Z,3.65
2022-10-05T17:22:25.566Z,4.03
2022-10-05T17:24:50.669Z,4.15
2022-10-05T17:26:57.885Z,4.50
2022-10-05T17:29:12.621Z,4.00
2022-10-05T17:31:27.792Z,4.07
2022-10-05T17:33:31.943Z,4.60
2022-10-05T17:35:54.318Z,5.32
2022-10-05T17:38:18.169Z,5.25
2022-10-05T17:40:29.104Z,5.53
2022-10-05T17:42:34.385Z,5.30
2022-10-05T17:44:36.362Z,6.38
2022-10-05T17:46:47.923Z,5.30
2022-10-05T17:48:49.826Z,5.80
2022-10-05T17:51:10.173Z,5.90
2022-10-05T17:54:02.997Z,5.07
2022-10-05T17:56:05.462Z,5.57
2022-10-05T17:58:29.019Z,5.07
2022-10-05T18:00:35.086Z,5.80
2022-10-05T18:02:40.133Z,5.40
2022-10-05T18:04:55.437Z,5.18
2022-10-05T18:06:59.006Z,5.07
2022-10-05T18:09:27.786Z,5.55
2022-10-05T18:11:40.363Z,5.63
2022-10-05T18:13:50.314Z,5.60
2022-10-05T18:15:52.341Z,4.90
2022-10-05T18:18:19.117Z,5.20
2022-10-05T18:20:27.042Z,5.50
2022-10-05T18:22:30.470Z,5.55
2022-10-05T18:25:10.317Z,4.93
2022-10-05T18:27:12.181Z,5.60
2022-10-05T18:30:04.802Z,5.25
2022-10-05T18:32:57.628Z,5.25
2022-10-05T18:35:08.446Z,4.47
2022-10-05T18:37:13.128Z,5.65
2022-10-05T18:39:50.283Z,4.53
2022-10-05T18:42:31.208Z,5.22
2022-10-05T18:44:42.038Z,5.10
2022-10-05T18:46:57.308Z,4.47
2022-10-05T18:49:36.221Z,5.63
2022-10-05T18:51:52.080Z,4.50
2022-10-05T18:53:59.961Z,5.75
2022-10-05T18:56:30.514Z,5.78
2022-10-05T18:58:35.913Z,4.28
2022-10-05T19:00:41.818Z,4.40
2022-10-05T19:02:50.564Z,6.10
2022-10-05T19:05:23.789Z,4.78
2022-10-05T19:07:49.735Z,4.57
2022-10-05T19:10:19.235Z,4.97
2022-10-05T19:12:41.842Z,4.45
2022-10-05T19:14:56.611Z,4.60
2022-10-05T19:17:19.482Z,4.90
2022-10-05T19:19:51.986Z,4.95
2022-10-05T19:21:56.646Z,4.90
2022-10-05T19:24:29.514Z,4.47
2022-10-05T19:27:00.936Z,5.10
2022-10-05T19:29:42.055Z,4.43
2022-10-05T19:31:53.134Z,4.28
2022-10-05T19:34:16.406Z,5.05
2022-10-05T19:36:21.436Z,4.68
2022-10-05T19:38:37.043Z,4.43
2022-10-05T19:40:42.133Z,4.50
2022-10-05T19:42:45.117Z,4.30
2022-10-05T19:44:56.654Z,4.25
2022-10-05T19:47:28.325Z,4.30
2022-10-05T19:49:54.369Z,4.60
2022-10-05T19:51:57.805Z,3.83
2022-10-05T19:54:13.685Z,3.83
2022-10-05T19:56:22.944Z,4.15
2022-10-05T19:58:30.103Z,4.07
2022-10-05T20:00:35.373Z,4.60
2022-10-05T20:02:41.776Z,3.95
2022-10-05T20:04:49.554Z,4.38
2022-10-05T20:06:51.592Z,3.92
2022-10-05T20:09:00.036Z,4.40
2022-10-05T20:11:18.215Z,4.47
2022-10-05T20:13:22.408Z,3.70
2022-10-05T20:15:54.246Z,4.13
2022-10-05T20:18:14.678Z,3.63
2022-10-05T20:20:30.853Z,3.80
2022-10-05T20:22:35.420Z,4.53
2022-10-05T20:24:50.748Z,3.42
2022-10-05T20:27:15.113Z,4.10
2022-10-05T20:29:23.327Z,3.83
2022-10-05T20:31:25.242Z,3.97
2022-10-05T20:33:28.399Z,3.85
2022-10-05T20:35:33.133Z,3.67
2022-10-05T20:37:36.799Z,3.75
2022-10-05T20:39:39.731Z,3.60
2022-10-05T20:41:45.738Z,4.43
2022-10-05T20:43:47.571Z,3.95
2022-10-05T20:45:49.602Z,4.97
2022-10-05T20:47:51.489Z,3.75
2022-10-05T20:49:56.119Z,4.78
2022-10-05T20:51:59.103Z,4.00
2022-10-05T20:54:01.018Z,4.45
2022-10-05T20:56:04.492Z,4.10
2022-10-05T20:58:08.952Z,4.00
2022-10-05T21:00:13.131Z,3.83
2022-10-05T21:02:15.366Z,4.35
2022-10-05T21:04:18.943Z,3.70
2022-10-05T21:06:21.159Z,3.72
2022-10-05T21:08:23.056Z,4.30
2022-10-05T21:10:24.955Z,3.90
2022-10-05T21:12:27.086Z,3.90
2022-10-05T21:14:32.964Z,4.03
2022-10-05T21:16:38.853Z,4.35
2022-10-05T21:18:41.810Z,3.88
2022-10-05T21:20:50.127Z,3.60
2022-10-05T21:22:51.992Z,3.70
2022-10-05T21:24:55.200Z,3.83
2022-10-05T21:26:57.950Z,3.70
2022-10-05T21:29:01.160Z,3.67
2022-10-05T21:31:03.016Z,3.42
2022-10-05T21:33:04.862Z,4.05
2022-10-05T21:35:07.082Z,3.53
2022-10-05T21:37:09.009Z,3.70
2022-10-05T21:39:11.080Z,3.78
2022-10-05T21:41:14.851Z,3.63
2022-10-05T21:43:17.110Z,3.58
2022-10-05T21:45:18.986Z,4.30
2022-10-05T21:47:20.873Z,3.47
2022-10-05T21:49:23.169Z,3.80
2022-10-05T21:51:27.191Z,3.90
2022-10-05T21:53:33.849Z,3.85
2022-10-05T21:55:38.278Z,3.42
2022-10-05T21:57:41.311Z,3.35
2022-10-05T21:59:43.610Z,3.70
2022-10-05T22:01:45.982Z,3.65
2022-10-05T22:03:48.171Z,3.47
2022-10-05T22:05:50.121Z,3.75
2022-10-05T22:07:52.160Z,3.50
2022-10-05T22:09:54.022Z,3.50
2022-10-05T22:11:56.706Z,3.65
2022-10-05T22:14:04.529Z,3.05
2022-10-05T22:16:06.630Z,3.55
2022-10-05T22:18:15.593Z,3.30
2022-10-05T22:20:20.297Z,2.95
2022-10-05T22:22:22.527Z,3.97
2022-10-05T22:24:24.426Z,3.50
2022-10-05T22:26:26.493Z,3.85
2022-10-05T22:28:29.765Z,3.22
2022-10-05T22:30:32.762Z,3.17
2022-10-05T22:32:34.767Z,3.00
2022-10-05T22:34:36.618Z,3.30
2022-10-05T22:36:38.498Z,3.20
2022-10-05T22:38:40.438Z,3.38
2022-10-05T22:40:42.318Z,3.28
2022-10-05T22:42:44.224Z,3.30
2022-10-05T22:44:46.128Z,3.10
2022-10-05T22:46:47.976Z,3.08
2022-10-05T22:48:49.853Z,3.35
2022-10-05T22:50:51.853Z,3.28
2022-10-05T22:52:53.672Z,3.08
2022-10-05T22:54:55.638Z,3.30
2022-10-05T22:56:57.446Z,3.38
2022-10-05T22:58:59.301Z,3.25
2022-10-05T23:01:06.492Z,3.13
2022-10-05T23:03:08.441Z,3.42
2022-10-05T23:05:13.255Z,2.97
2022-10-05T23:07:15.090Z,3.47
2022-10-05T23:09:17.027Z,3.53
2022-10-05T23:11:23.752Z,3.28
2022-10-05T23:13:25.685Z,3.53
2022-10-05T23:15:27.841Z,3.60
2022-10-05T23:17:30.402Z,3.22
2022-10-05T23:19:32.284Z,2.97
2022-10-05T23:21:34.163Z,3.00
2022-10-05T23:23:37.419Z,3.90
2022-10-05T23:25:39.344Z,3.08
2022-10-05T23:27:42.599Z,3.15
2022-10-05T23:29:44.486Z,3.40
2022-10-05T23:31:46.352Z,3.33
2022-10-05T23:33:49.092Z,2.85
2022-10-05T23:35:58.406Z,3.22
2022-10-05T23:38:00.355Z,3.15
2022-10-05T23:40:02.202Z,3.40
2022-10-05T23:42:05.099Z,3.33
2022-10-05T23:44:06.954Z,2.78
2022-10-05T23:46:09.728Z,3.42
2022-10-05T23:48:11.768Z,3.55
2022-10-05T23:50:13.605Z,3.38
2022-10-05T23:52:15.500Z,3.00
2022-10-05T23:54:17.395Z,3.30
2022-10-05T23:56:19.242Z,2.78
2022-10-05T23:58:22.495Z,2.88
